sensor_id;sensor_type;location;lat;lon;timestamp;P1;durP1;ratioP1;P2;durP2;ratioP2
5630;SDS011;2837;50.990;7.124;2023-09-07T05:00:37;151.20;;;10.57;;
5630;SDS011;2837;50.990;7.124;2023-09-07T05:03:03;148.20;;;10.13;;
5630;SDS011;2837;50.990;7.124;2023-09-07T05:05:29;148.70;;;10.47;;
5630;SDS011;2837;50.990;7.124;2023-09-07T05:07:55;149.30;;;10.57;;
5630;SDS011;2837;50.990;7.124;2023-09-07T05:10:21;150.87;;;10.37;;
5630;SDS011;2837;50.990;7.124;2023-09-07T05:12:47;149.23;;;9.97;;
5630;SDS011;2837;50.990;7.124;2023-09-07T05:15:12;149.33;;;10.53;;
5630;SDS011;2837;50.990;7.124;2023-09-07T05:17:38;155.67;;;10.97;;
5630;SDS011;2837;50.990;7.124;2023-09-07T05:20:04;149.13;;;10.60;;
5630;SDS011;2837;50.990;7.124;2023-09-07T05:22:30;150.10;;;11.27;;
5630;SDS011;2837;50.990;7.124;2023-09-07T05:24:57;149.50;;;11.03;;
5630;SDS011;2837;50.990;7.124;2023-09-07T05:27:23;153.50;;;10.67;;
5630;SDS011;2837;50.990;7.124;2023-09-07T05:29:49;148.53;;;10.30;;
5630;SDS011;2837;50.990;7.124;2023-09-07T05:32:15;150.20;;;10.53;;
5630;SDS011;2837;50.990;7.124;2023-09-07T05:34:41;149.07;;;10.00;;
5630;SDS011;2837;50.990;7.124;2023-09-07T05:37:07;149.30;;;10.00;;
5630;SDS011;2837;50.990;7.124;2023-09-07T05:39:32;147.30;;;9.40;;
5630;SDS011;2837;50.990;7.124;2023-09-07T05:41:58;149.97;;;10.60;;
5630;SDS011;2837;50.990;7.124;2023-09-07T05:44:24;149.30;;;9.67;;
5630;SDS011;2837;50.990;7.124;2023-09-07T05:46:50;148.47;;;10.37;;
5630;SDS011;2837;50.990;7.124;2023-09-07T05:49:16;147.20;;;10.17;;
5630;SDS011;2837;50.990;7.124;2023-09-07T05:51:41;149.17;;;10.20;;
5630;SDS011;2837;50.990;7.124;2023-09-07T05:54:07;148.20;;;10.37;;
5630;SDS011;2837;50.990;7.124;2023-09-07T05:56:33;148.40;;;10.33;;
5630;SDS011;2837;50.990;7.124;2023-09-07T05:58:59;148.97;;;9.60;;
5630;SDS011;2837;50.990;7.124;2023-09-07T06:01:25;164.80;;;10.43;;
5630;SDS011;2837;50.990;7.124;2023-09-07T06:03:51;147.57;;;10.00;;
5630;SDS011;2837;50.990;7.124;2023-09-07T06:06:17;148.07;;;9.43;;
5630;SDS011;2837;50.990;7.124;2023-09-07T06:08:43;151.20;;;11.20;;
5630;SDS011;2837;50.990;7.124;2023-09-07T06:11:08;151.07;;;10.23;;
5630;SDS011;2837;50.990;7.124;2023-09-07T06:13:34;149.50;;;10.10;;
5630;SDS011;2837;50.990;7.124;2023-09-07T06:16:00;148.07;;;10.23;;
5630;SDS011;2837;50.990;7.124;2023-09-07T06:18:26;148.87;;;10.00;;
5630;SDS011;2837;50.990;7.124;2023-09-07T06:20:53;148.37;;;9.93;;
5630;SDS011;2837;50.990;7.124;2023-09-07T06:23:18;151.90;;;10.33;;
5630;SDS011;2837;50.990;7.124;2023-09-07T06:25:44;148.43;;;9.77;;
5630;SDS011;2837;50.990;7.124;2023-09-07T06:28:10;149.87;;;10.37;;
5630;SDS011;2837;50.990;7.124;2023-09-07T06:30:36;149.63;;;10.67;;
5630;SDS011;2837;50.990;7.124;2023-09-07T06:33:01;150.97;;;10.63;;
5630;SDS011;2837;50.990;7.124;2023-09-07T06:35:27;148.97;;;10.23;;
5630;SDS011;2837;50.990;7.124;2023-09-07T06:37:53;148.97;;;10.50;;
5630;SDS011;2837;50.990;7.124;2023-09-07T06:40:19;148.77;;;10.10;;
5630;SDS011;2837;50.990;7.124;2023-09-07T06:42:45;147.10;;;9.27;;
5630;SDS011;2837;50.990;7.124;2023-09-07T06:45:11;146.97;;;9.30;;
5630;SDS011;2837;50.990;7.124;2023-09-07T06:47:37;148.77;;;9.70;;
5630;SDS011;2837;50.990;7.124;2023-09-07T06:50:03;150.80;;;10.07;;
5630;SDS011;2837;50.990;7.124;2023-09-07T06:52:30;147.00;;;9.67;;
5630;SDS011;2837;50.990;7.124;2023-09-07T06:54:56;148.37;;;9.80;;
5630;SDS011;2837;50.990;7.124;2023-09-07T06:57:22;149.30;;;10.07;;
5630;SDS011;2837;50.990;7.124;2023-09-07T06:59:48;149.00;;;10.23;;
5630;SDS011;2837;50.990;7.124;2023-09-07T07:02:13;148.13;;;9.93;;
5630;SDS011;2837;50.990;7.124;2023-09-07T07:04:39;149.47;;;10.20;;
5630;SDS011;2837;50.990;7.124;2023-09-07T07:07:05;149.40;;;9.47;;
5630;SDS011;2837;50.990;7.124;2023-09-07T07:09:31;151.17;;;10.77;;
5630;SDS011;2837;50.990;7.124;2023-09-07T07:12:01;148.73;;;10.50;;
5630;SDS011;2837;50.990;7.124;2023-09-07T07:14:27;149.93;;;10.00;;
5630;SDS011;2837;50.990;7.124;2023-09-07T07:16:53;152.17;;;11.10;;
5630;SDS011;2837;50.990;7.124;2023-09-07T07:19:19;148.93;;;10.20;;
5630;SDS011;2837;50.990;7.124;2023-09-07T07:21:46;149.27;;;10.30;;
5630;SDS011;2837;50.990;7.124;2023-09-07T07:24:12;153.37;;;10.03;;
5630;SDS011;2837;50.990;7.124;2023-09-07T07:26:39;148.10;;;9.50;;
5630;SDS011;2837;50.990;7.124;2023-09-07T07:29:05;148.60;;;10.37;;
5630;SDS011;2837;50.990;7.124;2023-09-07T07:31:31;150.37;;;10.73;;
5630;SDS011;2837;50.990;7.124;2023-09-07T07:33:57;150.23;;;10.77;;
5630;SDS011;2837;50.990;7.124;2023-09-07T07:36:23;151.13;;;11.47;;
5630;SDS011;2837;50.990;7.124;2023-09-07T07:38:49;155.63;;;10.53;;
5630;SDS011;2837;50.990;7.124;2023-09-07T07:41:15;151.67;;;10.67;;
5630;SDS011;2837;50.990;7.124;2023-09-07T07:43:41;148.53;;;9.80;;
5630;SDS011;2837;50.990;7.124;2023-09-07T07:46:07;150.27;;;10.43;;
5630;SDS011;2837;50.990;7.124;2023-09-07T07:48:33;152.00;;;11.50;;
5630;SDS011;2837;50.990;7.124;2023-09-07T07:51:02;155.40;;;11.20;;
5630;SDS011;2837;50.990;7.124;2023-09-07T07:53:29;151.27;;;10.13;;
5630;SDS011;2837;50.990;7.124;2023-09-07T07:55:55;149.60;;;10.70;;
5630;SDS011;2837;50.990;7.124;2023-09-07T07:58:22;149.57;;;10.70;;
5630;SDS011;2837;50.990;7.124;2023-09-07T08:00:47;151.07;;;10.80;;
5630;SDS011;2837;50.990;7.124;2023-09-07T08:03:14;148.57;;;9.50;;
5630;SDS011;2837;50.990;7.124;2023-09-07T08:05:40;149.57;;;9.33;;
5630;SDS011;2837;50.990;7.124;2023-09-07T08:08:06;147.37;;;9.13;;
5630;SDS011;2837;50.990;7.124;2023-09-07T08:10:35;149.50;;;9.30;;
5630;SDS011;2837;50.990;7.124;2023-09-07T08:13:02;149.77;;;10.07;;
5630;SDS011;2837;50.990;7.124;2023-09-07T08:15:29;147.57;;;9.40;;
5630;SDS011;2837;50.990;7.124;2023-09-07T08:17:55;161.25;;;13.70;;
5630;SDS011;2837;50.990;7.124;2023-09-07T08:20:21;160.10;;;11.85;;
5630;SDS011;2837;50.990;7.124;2023-09-07T08:22:47;158.47;;;11.13;;
5630;SDS011;2837;50.990;7.124;2023-09-07T08:25:13;157.77;;;9.15;;
5630;SDS011;2837;50.990;7.124;2023-09-07T08:27:40;157.40;;;10.33;;
5630;SDS011;2837;50.990;7.124;2023-09-07T08:30:09;155.80;;;9.10;;
5630;SDS011;2837;50.990;7.124;2023-09-07T08:32:44;157.75;;;8.95;;
5630;SDS011;2837;50.990;7.124;2023-09-07T08:35:11;156.80;;;10.23;;
5630;SDS011;2837;50.990;7.124;2023-09-07T08:37:42;156.90;;;10.40;;
5630;SDS011;2837;50.990;7.124;2023-09-07T08:40:08;157.23;;;9.38;;
5630;SDS011;2837;50.990;7.124;2023-09-07T08:42:37;159.00;;;11.77;;
5630;SDS011;2837;50.990;7.124;2023-09-07T08:45:03;157.60;;;11.80;;
5630;SDS011;2837;50.990;7.124;2023-09-07T08:47:36;156.60;;;11.02;;
5630;SDS011;2837;50.990;7.124;2023-09-07T08:50:03;155.00;;;9.35;;
5630;SDS011;2837;50.990;7.124;2023-09-07T08:52:31;156.80;;;11.00;;
5630;SDS011;2837;50.990;7.124;2023-09-07T08:54:57;156.68;;;10.85;;
5630;SDS011;2837;50.990;7.124;2023-09-07T08:57:23;154.98;;;9.27;;
5630;SDS011;2837;50.990;7.124;2023-09-07T08:59:52;155.70;;;9.60;;
5630;SDS011;2837;50.990;7.124;2023-09-07T09:02:18;155.07;;;9.27;;
5630;SDS011;2837;50.990;7.124;2023-09-07T09:04:43;154.90;;;9.37;;
5630;SDS011;2837;50.990;7.124;2023-09-07T09:07:09;154.75;;;9.30;;
5630;SDS011;2837;50.990;7.124;2023-09-07T09:09:35;155.20;;;9.25;;
5630;SDS011;2837;50.990;7.124;2023-09-07T09:12:06;156.57;;;10.50;;
5630;SDS011;2837;50.990;7.124;2023-09-07T09:14:35;154.63;;;9.05;;
5630;SDS011;2837;50.990;7.124;2023-09-07T09:17:01;156.95;;;10.95;;
5630;SDS011;2837;50.990;7.124;2023-09-07T09:19:33;154.30;;;8.65;;
5630;SDS011;2837;50.990;7.124;2023-09-07T09:22:00;154.68;;;8.95;;
5630;SDS011;2837;50.990;7.124;2023-09-07T09:24:26;154.77;;;9.00;;
5630;SDS011;2837;50.990;7.124;2023-09-07T09:26:52;154.80;;;9.23;;
5630;SDS011;2837;50.990;7.124;2023-09-07T09:29:21;155.90;;;9.50;;
5630;SDS011;2837;50.990;7.124;2023-09-07T09:31:48;155.63;;;9.05;;
5630;SDS011;2837;50.990;7.124;2023-09-07T09:34:13;154.50;;;9.00;;
5630;SDS011;2837;50.990;7.124;2023-09-07T09:36:42;145.47;;;9.10;;
5630;SDS011;2837;50.990;7.124;2023-09-07T09:39:08;144.30;;;8.97;;
5630;SDS011;2837;50.990;7.124;2023-09-07T09:41:34;144.87;;;8.70;;
5630;SDS011;2837;50.990;7.124;2023-09-07T09:44:02;146.17;;;9.03;;
5630;SDS011;2837;50.990;7.124;2023-09-07T09:46:28;146.87;;;8.50;;
5630;SDS011;2837;50.990;7.124;2023-09-07T09:48:56;146.17;;;8.10;;
5630;SDS011;2837;50.990;7.124;2023-09-07T09:51:23;144.70;;;7.90;;
5630;SDS011;2837;50.990;7.124;2023-09-07T09:53:50;147.20;;;8.27;;
5630;SDS011;2837;50.990;7.124;2023-09-07T09:56:16;146.13;;;9.00;;
5630;SDS011;2837;50.990;7.124;2023-09-07T09:58:42;150.40;;;9.37;;
5630;SDS011;2837;50.990;7.124;2023-09-07T10:01:08;153.30;;;8.40;;
5630;SDS011;2837;50.990;7.124;2023-09-07T10:03:37;148.00;;;9.60;;
5630;SDS011;2837;50.990;7.124;2023-09-07T10:06:11;145.00;;;8.93;;
5630;SDS011;2837;50.990;7.124;2023-09-07T10:08:37;146.90;;;8.23;;
5630;SDS011;2837;50.990;7.124;2023-09-07T10:11:09;144.37;;;8.23;;
5630;SDS011;2837;50.990;7.124;2023-09-07T10:13:35;146.57;;;9.60;;
5630;SDS011;2837;50.990;7.124;2023-09-07T10:16:01;145.13;;;8.57;;
5630;SDS011;2837;50.990;7.124;2023-09-07T10:18:38;144.73;;;8.20;;
5630;SDS011;2837;50.990;7.124;2023-09-07T10:21:05;144.87;;;8.30;;
5630;SDS011;2837;50.990;7.124;2023-09-07T10:23:37;149.17;;;8.80;;
5630;SDS011;2837;50.990;7.124;2023-09-07T10:26:05;144.83;;;8.17;;
5630;SDS011;2837;50.990;7.124;2023-09-07T10:28:34;144.40;;;7.63;;
5630;SDS011;2837;50.990;7.124;2023-09-07T10:33:30;144.47;;;7.70;;
5630;SDS011;2837;50.990;7.124;2023-09-07T10:35:57;163.70;;;8.80;;
5630;SDS011;2837;50.990;7.124;2023-09-07T10:38:23;146.53;;;9.40;;
5630;SDS011;2837;50.990;7.124;2023-09-07T10:40:49;146.13;;;9.10;;
5630;SDS011;2837;50.990;7.124;2023-09-07T10:43:22;146.33;;;8.33;;
5630;SDS011;2837;50.990;7.124;2023-09-07T10:45:48;146.10;;;8.50;;
5630;SDS011;2837;50.990;7.124;2023-09-07T10:48:14;147.57;;;9.23;;
5630;SDS011;2837;50.990;7.124;2023-09-07T10:50:42;145.00;;;8.60;;
5630;SDS011;2837;50.990;7.124;2023-09-07T10:53:12;147.60;;;8.90;;
5630;SDS011;2837;50.990;7.124;2023-09-07T10:55:39;145.60;;;9.03;;
5630;SDS011;2837;50.990;7.124;2023-09-07T10:58:05;145.57;;;9.23;;
5630;SDS011;2837;50.990;7.124;2023-09-07T11:00:33;144.43;;;8.60;;
5630;SDS011;2837;50.990;7.124;2023-09-07T11:03:05;148.67;;;8.60;;
5630;SDS011;2837;50.990;7.124;2023-09-07T11:05:33;145.90;;;8.57;;
5630;SDS011;2837;50.990;7.124;2023-09-07T11:08:01;145.50;;;8.40;;
5630;SDS011;2837;50.990;7.124;2023-09-07T11:10:28;145.90;;;9.00;;
5630;SDS011;2837;50.990;7.124;2023-09-07T11:13:00;145.27;;;7.83;;
5630;SDS011;2837;50.990;7.124;2023-09-07T11:15:28;146.57;;;8.87;;
5630;SDS011;2837;50.990;7.124;2023-09-07T11:17:55;147.87;;;8.90;;
5630;SDS011;2837;50.990;7.124;2023-09-07T11:20:21;146.20;;;9.10;;
5630;SDS011;2837;50.990;7.124;2023-09-07T11:22:48;144.93;;;9.00;;
5630;SDS011;2837;50.990;7.124;2023-09-07T11:25:14;144.67;;;8.20;;
5630;SDS011;2837;50.990;7.124;2023-09-07T11:27:40;145.47;;;9.10;;
5630;SDS011;2837;50.990;7.124;2023-09-07T11:30:06;145.17;;;9.00;;
5630;SDS011;2837;50.990;7.124;2023-09-07T11:32:36;146.17;;;9.30;;
5630;SDS011;2837;50.990;7.124;2023-09-07T11:35:02;147.40;;;10.20;;
5630;SDS011;2837;50.990;7.124;2023-09-07T11:37:32;144.80;;;8.23;;
5630;SDS011;2837;50.990;7.124;2023-09-07T11:39:57;145.37;;;9.07;;
5630;SDS011;2837;50.990;7.124;2023-09-07T11:42:23;144.80;;;9.20;;
5630;SDS011;2837;50.990;7.124;2023-09-07T11:44:49;144.67;;;8.50;;
5630;SDS011;2837;50.990;7.124;2023-09-07T11:47:15;144.63;;;8.70;;
5630;SDS011;2837;50.990;7.124;2023-09-07T11:49:41;145.23;;;9.23;;
5630;SDS011;2837;50.990;7.124;2023-09-07T11:52:06;145.27;;;8.80;;
5630;SDS011;2837;50.990;7.124;2023-09-07T11:54:32;145.10;;;9.23;;
5630;SDS011;2837;50.990;7.124;2023-09-07T11:56:58;145.40;;;9.73;;
5630;SDS011;2837;50.990;7.124;2023-09-07T11:59:23;145.47;;;8.90;;
5630;SDS011;2837;50.990;7.124;2023-09-07T12:01:49;146.27;;;9.57;;
5630;SDS011;2837;50.990;7.124;2023-09-07T12:04:15;146.20;;;9.50;;
5630;SDS011;2837;50.990;7.124;2023-09-07T12:06:41;146.50;;;9.00;;
5630;SDS011;2837;50.990;7.124;2023-09-07T12:09:07;144.90;;;9.07;;
5630;SDS011;2837;50.990;7.124;2023-09-07T12:11:34;143.77;;;8.83;;
5630;SDS011;2837;50.990;7.124;2023-09-07T12:14:00;144.27;;;8.60;;
5630;SDS011;2837;50.990;7.124;2023-09-07T12:16:26;145.23;;;8.70;;
5630;SDS011;2837;50.990;7.124;2023-09-07T12:18:52;149.53;;;8.80;;
5630;SDS011;2837;50.990;7.124;2023-09-07T12:21:19;144.77;;;8.90;;
5630;SDS011;2837;50.990;7.124;2023-09-07T12:23:44;147.60;;;9.30;;
5630;SDS011;2837;50.990;7.124;2023-09-07T12:26:11;145.27;;;8.97;;
5630;SDS011;2837;50.990;7.124;2023-09-07T12:28:37;144.40;;;8.67;;
5630;SDS011;2837;50.990;7.124;2023-09-07T12:31:03;145.20;;;9.00;;
5630;SDS011;2837;50.990;7.124;2023-09-07T12:33:30;145.30;;;8.73;;
5630;SDS011;2837;50.990;7.124;2023-09-07T12:35:55;144.30;;;8.33;;
5630;SDS011;2837;50.990;7.124;2023-09-07T12:38:21;145.77;;;9.63;;
5630;SDS011;2837;50.990;7.124;2023-09-07T12:40:52;146.13;;;9.50;;
5630;SDS011;2837;50.990;7.124;2023-09-07T12:43:18;144.17;;;8.10;;
5630;SDS011;2837;50.990;7.124;2023-09-07T12:45:44;147.20;;;9.50;;
5630;SDS011;2837;50.990;7.124;2023-09-07T12:48:10;144.10;;;8.77;;
5630;SDS011;2837;50.990;7.124;2023-09-07T12:50:36;145.13;;;8.67;;
5630;SDS011;2837;50.990;7.124;2023-09-07T12:53:02;144.47;;;8.50;;
5630;SDS011;2837;50.990;7.124;2023-09-07T12:55:28;143.70;;;8.30;;
5630;SDS011;2837;50.990;7.124;2023-09-07T12:57:55;144.87;;;8.70;;
5630;SDS011;2837;50.990;7.124;2023-09-07T13:00:20;145.23;;;9.40;;
5630;SDS011;2837;50.990;7.124;2023-09-07T13:02:46;143.67;;;8.43;;
5630;SDS011;2837;50.990;7.124;2023-09-07T13:05:12;145.17;;;8.40;;
5630;SDS011;2837;50.990;7.124;2023-09-07T13:07:38;144.37;;;8.40;;
5630;SDS011;2837;50.990;7.124;2023-09-07T13:10:05;148.90;;;7.90;;
5630;SDS011;2837;50.990;7.124;2023-09-07T13:12:31;145.00;;;8.80;;
5630;SDS011;2837;50.990;7.124;2023-09-07T13:14:57;144.07;;;9.07;;
5630;SDS011;2837;50.990;7.124;2023-09-07T13:17:23;147.63;;;8.20;;
5630;SDS011;2837;50.990;7.124;2023-09-07T13:19:49;144.93;;;8.20;;
5630;SDS011;2837;50.990;7.124;2023-09-07T13:22:15;144.07;;;9.30;;
5630;SDS011;2837;50.990;7.124;2023-09-07T13:24:41;144.77;;;8.20;;
5630;SDS011;2837;50.990;7.124;2023-09-07T13:27:07;144.73;;;8.87;;
5630;SDS011;2837;50.990;7.124;2023-09-07T13:29:35;143.83;;;8.23;;
5630;SDS011;2837;50.990;7.124;2023-09-07T13:32:01;142.47;;;7.80;;
5630;SDS011;2837;50.990;7.124;2023-09-07T13:34:27;144.67;;;8.87;;
5630;SDS011;2837;50.990;7.124;2023-09-07T13:36:53;150.70;;;8.00;;
5630;SDS011;2837;50.990;7.124;2023-09-07T13:39:19;143.43;;;8.70;;
5630;SDS011;2837;50.990;7.124;2023-09-07T13:41:45;146.47;;;8.50;;
5630;SDS011;2837;50.990;7.124;2023-09-07T13:44:11;147.27;;;8.43;;
5630;SDS011;2837;50.990;7.124;2023-09-07T13:46:37;144.13;;;8.63;;
5630;SDS011;2837;50.990;7.124;2023-09-07T13:49:03;143.90;;;8.80;;
5630;SDS011;2837;50.990;7.124;2023-09-07T13:51:29;145.77;;;8.73;;
5630;SDS011;2837;50.990;7.124;2023-09-07T13:54:00;144.27;;;9.20;;
5630;SDS011;2837;50.990;7.124;2023-09-07T13:56:26;143.47;;;8.20;;
5630;SDS011;2837;50.990;7.124;2023-09-07T13:58:52;146.37;;;8.40;;
5630;SDS011;2837;50.990;7.124;2023-09-07T14:01:17;146.70;;;8.53;;
5630;SDS011;2837;50.990;7.124;2023-09-07T14:03:43;143.97;;;8.33;;
5630;SDS011;2837;50.990;7.124;2023-09-07T14:06:09;143.47;;;8.93;;
5630;SDS011;2837;50.990;7.124;2023-09-07T14:08:35;143.00;;;7.30;;
5630;SDS011;2837;50.990;7.124;2023-09-07T14:11:01;143.67;;;8.00;;
5630;SDS011;2837;50.990;7.124;2023-09-07T14:13:27;144.17;;;8.60;;
5630;SDS011;2837;50.990;7.124;2023-09-07T14:15:53;143.27;;;8.40;;
5630;SDS011;2837;50.990;7.124;2023-09-07T14:18:19;142.80;;;8.17;;
5630;SDS011;2837;50.990;7.124;2023-09-07T14:20:44;142.97;;;8.23;;
5630;SDS011;2837;50.990;7.124;2023-09-07T14:23:10;142.97;;;8.27;;
5630;SDS011;2837;50.990;7.124;2023-09-07T14:25:36;142.77;;;7.77;;
5630;SDS011;2837;50.990;7.124;2023-09-07T14:28:02;143.43;;;8.73;;
5630;SDS011;2837;50.990;7.124;2023-09-07T14:30:28;144.53;;;7.63;;
5630;SDS011;2837;50.990;7.124;2023-09-07T14:32:54;144.77;;;7.40;;
5630;SDS011;2837;50.990;7.124;2023-09-07T14:35:20;143.87;;;8.43;;
5630;SDS011;2837;50.990;7.124;2023-09-07T14:37:46;143.70;;;8.13;;
5630;SDS011;2837;50.990;7.124;2023-09-07T14:40:11;142.03;;;8.60;;
5630;SDS011;2837;50.990;7.124;2023-09-07T14:42:38;154.27;;;8.43;;
5630;SDS011;2837;50.990;7.124;2023-09-07T14:45:04;143.40;;;8.70;;
5630;SDS011;2837;50.990;7.124;2023-09-07T14:47:30;143.13;;;8.40;;
5630;SDS011;2837;50.990;7.124;2023-09-07T14:49:56;142.50;;;7.90;;
5630;SDS011;2837;50.990;7.124;2023-09-07T14:52:21;143.27;;;8.00;;
5630;SDS011;2837;50.990;7.124;2023-09-07T14:54:50;148.37;;;7.80;;
5630;SDS011;2837;50.990;7.124;2023-09-07T14:57:16;146.57;;;8.03;;
5630;SDS011;2837;50.990;7.124;2023-09-07T14:59:42;142.47;;;7.67;;
5630;SDS011;2837;50.990;7.124;2023-09-07T15:02:08;143.20;;;8.13;;
5630;SDS011;2837;50.990;7.124;2023-09-07T15:04:34;142.30;;;7.63;;
5630;SDS011;2837;50.990;7.124;2023-09-07T15:07:01;142.67;;;7.43;;
5630;SDS011;2837;50.990;7.124;2023-09-07T15:09:27;142.60;;;8.40;;
5630;SDS011;2837;50.990;7.124;2023-09-07T15:11:53;141.87;;;7.43;;
5630;SDS011;2837;50.990;7.124;2023-09-07T15:14:19;143.13;;;8.17;;
5630;SDS011;2837;50.990;7.124;2023-09-07T15:16:44;142.67;;;7.80;;
5630;SDS011;2837;50.990;7.124;2023-09-07T15:19:10;143.47;;;8.63;;
5630;SDS011;2837;50.990;7.124;2023-09-07T15:21:36;142.27;;;7.80;;
5630;SDS011;2837;50.990;7.124;2023-09-07T15:24:02;143.87;;;7.80;;
5630;SDS011;2837;50.990;7.124;2023-09-07T15:26:28;142.60;;;7.73;;
5630;SDS011;2837;50.990;7.124;2023-09-07T15:29:04;145.17;;;7.97;;
5630;SDS011;2837;50.990;7.124;2023-09-07T15:31:29;141.73;;;7.63;;
5630;SDS011;2837;50.990;7.124;2023-09-07T15:33:55;141.40;;;7.33;;
5630;SDS011;2837;50.990;7.124;2023-09-07T15:36:21;142.90;;;8.90;;
5630;SDS011;2837;50.990;7.124;2023-09-07T15:38:47;143.87;;;8.63;;
5630;SDS011;2837;50.990;7.124;2023-09-07T15:41:14;142.67;;;7.77;;
5630;SDS011;2837;50.990;7.124;2023-09-07T15:43:40;142.07;;;8.13;;
5630;SDS011;2837;50.990;7.124;2023-09-07T15:46:06;153.43;;;9.30;;
5630;SDS011;2837;50.990;7.124;2023-09-07T15:48:32;142.97;;;8.10;;
5630;SDS011;2837;50.990;7.124;2023-09-07T15:50:58;142.57;;;8.63;;
5630;SDS011;2837;50.990;7.124;2023-09-07T15:53:24;141.80;;;7.90;;
5630;SDS011;2837;50.990;7.124;2023-09-07T15:55:50;141.73;;;7.90;;
5630;SDS011;2837;50.990;7.124;2023-09-07T15:58:16;142.20;;;8.33;;
5630;SDS011;2837;50.990;7.124;2023-09-07T16:00:41;144.23;;;9.00;;
5630;SDS011;2837;50.990;7.124;2023-09-07T16:03:07;143.30;;;8.77;;
5630;SDS011;2837;50.990;7.124;2023-09-07T16:05:34;146.93;;;9.20;;
5630;SDS011;2837;50.990;7.124;2023-09-07T16:08:00;143.67;;;8.67;;
5630;SDS011;2837;50.990;7.124;2023-09-07T16:10:27;143.37;;;8.50;;
5630;SDS011;2837;50.990;7.124;2023-09-07T16:12:52;142.77;;;8.23;;
5630;SDS011;2837;50.990;7.124;2023-09-07T16:15:18;144.47;;;9.20;;
5630;SDS011;2837;50.990;7.124;2023-09-07T16:17:44;142.80;;;8.80;;
5630;SDS011;2837;50.990;7.124;2023-09-07T16:20:10;143.60;;;9.13;;
5630;SDS011;2837;50.990;7.124;2023-09-07T16:22:36;144.77;;;9.03;;
5630;SDS011;2837;50.990;7.124;2023-09-07T16:25:01;142.77;;;8.90;;
5630;SDS011;2837;50.990;7.124;2023-09-07T16:27:27;143.10;;;8.80;;
5630;SDS011;2837;50.990;7.124;2023-09-07T16:29:53;144.10;;;7.77;;
5630;SDS011;2837;50.990;7.124;2023-09-07T16:32:18;143.77;;;8.50;;
5630;SDS011;2837;50.990;7.124;2023-09-07T16:34:44;145.27;;;8.33;;
5630;SDS011;2837;50.990;7.124;2023-09-07T16:37:09;142.23;;;8.33;;
5630;SDS011;2837;50.990;7.124;2023-09-07T16:39:35;143.50;;;9.07;;
5630;SDS011;2837;50.990;7.124;2023-09-07T16:42:01;142.97;;;8.20;;
5630;SDS011;2837;50.990;7.124;2023-09-07T16:44:27;142.37;;;8.00;;
5630;SDS011;2837;50.990;7.124;2023-09-07T16:46:53;143.20;;;7.73;;
5630;SDS011;2837;50.990;7.124;2023-09-07T16:49:18;144.10;;;9.17;;
5630;SDS011;2837;50.990;7.124;2023-09-07T16:51:44;143.17;;;8.60;;
5630;SDS011;2837;50.990;7.124;2023-09-07T16:54:10;143.10;;;8.30;;
5630;SDS011;2837;50.990;7.124;2023-09-07T16:56:36;142.37;;;8.20;;
5630;SDS011;2837;50.990;7.124;2023-09-07T16:59:02;144.10;;;8.30;;
5630;SDS011;2837;50.990;7.124;2023-09-07T17:01:28;142.60;;;8.20;;
5630;SDS011;2837;50.990;7.124;2023-09-07T17:03:54;143.57;;;9.23;;
5630;SDS011;2837;50.990;7.124;2023-09-07T17:06:20;144.03;;;8.33;;
5630;SDS011;2837;50.990;7.124;2023-09-07T17:08:46;142.63;;;7.83;;
5630;SDS011;2837;50.990;7.124;2023-09-07T17:11:12;147.90;;;8.50;;
5630;SDS011;2837;50.990;7.124;2023-09-07T17:13:38;141.70;;;7.30;;
5630;SDS011;2837;50.990;7.124;2023-09-07T17:18:31;143.90;;;8.80;;
5630;SDS011;2837;50.990;7.124;2023-09-07T17:21:02;143.17;;;8.20;;
5630;SDS011;2837;50.990;7.124;2023-09-07T17:23:29;142.97;;;8.13;;
5630;SDS011;2837;50.990;7.124;2023-09-07T17:25:59;144.20;;;8.40;;
5630;SDS011;2837;50.990;7.124;2023-09-07T17:28:26;144.40;;;8.13;;
5630;SDS011;2837;50.990;7.124;2023-09-07T17:30:52;144.87;;;9.30;;
5630;SDS011;2837;50.990;7.124;2023-09-07T17:33:18;142.97;;;7.70;;
5630;SDS011;2837;50.990;7.124;2023-09-07T17:35:44;145.17;;;9.13;;
5630;SDS011;2837;50.990;7.124;2023-09-07T17:38:10;145.67;;;8.83;;
5630;SDS011;2837;50.990;7.124;2023-09-07T17:40:36;144.37;;;8.70;;
5630;SDS011;2837;50.990;7.124;2023-09-07T17:43:02;144.50;;;8.70;;
5630;SDS011;2837;50.990;7.124;2023-09-07T17:45:28;149.80;;;8.37;;
5630;SDS011;2837;50.990;7.124;2023-09-07T17:47:53;143.77;;;9.07;;
5630;SDS011;2837;50.990;7.124;2023-09-07T17:50:19;144.97;;;8.90;;
5630;SDS011;2837;50.990;7.124;2023-09-07T17:52:45;146.07;;;8.37;;
5630;SDS011;2837;50.990;7.124;2023-09-07T17:55:10;147.50;;;8.63;;
5630;SDS011;2837;50.990;7.124;2023-09-07T17:57:36;145.83;;;9.43;;
5630;SDS011;2837;50.990;7.124;2023-09-07T18:00:02;145.20;;;9.07;;
5630;SDS011;2837;50.990;7.124;2023-09-07T18:02:29;144.80;;;9.00;;
5630;SDS011;2837;50.990;7.124;2023-09-07T18:04:56;147.93;;;8.93;;
5630;SDS011;2837;50.990;7.124;2023-09-07T18:07:22;145.03;;;8.50;;
5630;SDS011;2837;50.990;7.124;2023-09-07T18:09:48;144.97;;;9.00;;
5630;SDS011;2837;50.990;7.124;2023-09-07T18:12:15;144.87;;;9.13;;
5630;SDS011;2837;50.990;7.124;2023-09-07T18:14:41;143.80;;;8.30;;
5630;SDS011;2837;50.990;7.124;2023-09-07T18:17:06;144.77;;;8.73;;
5630;SDS011;2837;50.990;7.124;2023-09-07T18:19:32;146.10;;;8.83;;
5630;SDS011;2837;50.990;7.124;2023-09-07T18:21:58;147.37;;;9.17;;
5630;SDS011;2837;50.990;7.124;2023-09-07T18:24:24;144.10;;;8.60;;
5630;SDS011;2837;50.990;7.124;2023-09-07T18:26:50;144.67;;;8.90;;
5630;SDS011;2837;50.990;7.124;2023-09-07T18:29:16;146.47;;;9.00;;
5630;SDS011;2837;50.990;7.124;2023-09-07T18:31:43;145.30;;;8.67;;
5630;SDS011;2837;50.990;7.124;2023-09-07T18:34:09;147.97;;;9.43;;
5630;SDS011;2837;50.990;7.124;2023-09-07T18:36:35;144.97;;;8.80;;
5630;SDS011;2837;50.990;7.124;2023-09-07T18:39:01;146.97;;;9.10;;
5630;SDS011;2837;50.990;7.124;2023-09-07T18:41:27;146.17;;;8.73;;
5630;SDS011;2837;50.990;7.124;2023-09-07T18:43:53;148.23;;;9.80;;
5630;SDS011;2837;50.990;7.124;2023-09-07T18:46:18;145.47;;;9.03;;
5630;SDS011;2837;50.990;7.124;2023-09-07T18:48:44;153.27;;;9.77;;
5630;SDS011;2837;50.990;7.124;2023-09-07T18:51:09;147.70;;;9.17;;
5630;SDS011;2837;50.990;7.124;2023-09-07T18:53:36;146.50;;;9.43;;
5630;SDS011;2837;50.990;7.124;2023-09-07T18:56:02;146.37;;;9.20;;
5630;SDS011;2837;50.990;7.124;2023-09-07T18:58:29;144.43;;;9.07;;
5630;SDS011;2837;50.990;7.124;2023-09-07T19:00:54;145.67;;;9.27;;
5630;SDS011;2837;50.990;7.124;2023-09-07T19:03:21;149.90;;;9.03;;
5630;SDS011;2837;50.990;7.124;2023-09-07T19:05:46;146.77;;;9.60;;
5630;SDS011;2837;50.990;7.124;2023-09-07T19:08:12;149.13;;;9.40;;
5630;SDS011;2837;50.990;7.124;2023-09-07T19:10:38;147.37;;;9.77;;
5630;SDS011;2837;50.990;7.124;2023-09-07T19:13:04;145.13;;;9.20;;
5630;SDS011;2837;50.990;7.124;2023-09-07T19:15:29;145.60;;;8.23;;
5630;SDS011;2837;50.990;7.124;2023-09-07T19:17:55;146.70;;;9.63;;
5630;SDS011;2837;50.990;7.124;2023-09-07T19:20:21;148.13;;;10.17;;
5630;SDS011;2837;50.990;7.124;2023-09-07T19:22:47;147.37;;;9.67;;
5630;SDS011;2837;50.990;7.124;2023-09-07T19:25:13;147.67;;;10.00;;
5630;SDS011;2837;50.990;7.124;2023-09-07T19:27:39;147.17;;;9.43;;
5630;SDS011;2837;50.990;7.124;2023-09-07T19:30:06;145.90;;;9.10;;
5630;SDS011;2837;50.990;7.124;2023-09-07T19:32:33;145.33;;;9.70;;
5630;SDS011;2837;50.990;7.124;2023-09-07T19:34:59;146.67;;;9.63;;
5630;SDS011;2837;50.990;7.124;2023-09-07T19:37:25;146.67;;;9.57;;
5630;SDS011;2837;50.990;7.124;2023-09-07T19:39:50;146.27;;;8.03;;
5630;SDS011;2837;50.990;7.124;2023-09-07T19:42:16;151.87;;;8.90;;
5630;SDS011;2837;50.990;7.124;2023-09-07T19:44:42;146.47;;;9.40;;